createdAt,value
2022-11-27T00:01:24.418Z,12.02
2022-11-27T00:03:52.216Z,11.40
2022-11-27T00:06:21.122Z,11.00
2022-11-27T00:08:49.081Z,13.98
2022-11-27T00:11:18.577Z,9.88
2022-11-27T00:13:46.490Z,10.73
2022-11-27T00:16:14.947Z,12.82
2022-11-27T00:18:43.693Z,12.15
2022-11-27T00:21:12.623Z,11.93
2022-11-27T00:23:40.639Z,10.88
2022-11-27T00:26:10.274Z,10.13
2022-11-27T00:28:38.272Z,12.65
2022-11-27T00:31:16.195Z,10.98
2022-11-27T00:33:43.816Z,13.05
2022-11-27T00:36:12.055Z,10.43
2022-11-27T00:38:39.734Z,10.90
2022-11-27T00:41:17.821Z,10.73
2022-11-27T00:43:45.827Z,11.43
2022-11-27T00:46:14.229Z,10.43
2022-11-27T00:48:42.046Z,9.90
2022-11-27T00:51:10.648Z,10.88
2022-11-27T00:53:38.236Z,11.43
2022-11-27T00:56:05.960Z,10.25
2022-11-27T00:58:33.543Z,11.95
2022-11-27T01:01:02.871Z,10.70
2022-11-27T01:03:30.893Z,11.23
2022-11-27T01:06:02.585Z,10.73
2022-11-27T01:08:30.134Z,10.30
2022-11-27T01:10:58.518Z,9.88
2022-11-27T01:13:34.300Z,10.70
2022-11-27T01:16:12.721Z,9.65
2022-11-27T01:18:41.658Z,8.40
2022-11-27T01:21:09.552Z,10.18
2022-11-27T01:23:37.118Z,9.00
2022-11-27T01:26:05.557Z,10.38
2022-11-27T01:28:33.258Z,8.18
2022-11-27T01:31:04.965Z,9.98
2022-11-27T01:33:32.729Z,8.65
2022-11-27T01:36:01.588Z,13.75
2022-11-27T01:38:29.937Z,10.13
2022-11-27T01:41:01.424Z,10.85
2022-11-27T01:43:47.787Z,9.35
2022-11-27T01:46:24.663Z,7.85
2022-11-27T01:48:58.648Z,11.32
2022-11-27T01:51:26.386Z,7.15
2022-11-27T01:53:54.825Z,9.35
2022-11-27T01:56:23.549Z,7.43
2022-11-27T01:58:51.835Z,8.63
2022-11-27T02:01:19.618Z,8.23
2022-11-27T02:03:47.260Z,9.52
2022-11-27T02:06:15.039Z,8.93
2022-11-27T02:08:43.013Z,7.93
2022-11-27T02:11:15.631Z,10.48
2022-11-27T02:13:59.539Z,14.13
2022-11-27T02:16:40.297Z,12.43
2022-11-27T02:19:13.389Z,11.48
2022-11-27T02:21:53.909Z,9.30
2022-11-27T02:24:38.922Z,9.38
2022-11-27T02:27:06.632Z,9.60
2022-11-27T02:29:34.708Z,9.25
2022-11-27T02:32:04.993Z,9.43
2022-11-27T02:34:32.493Z,8.60
2022-11-27T02:37:03.012Z,6.97
2022-11-27T02:39:34.108Z,7.53
2022-11-27T02:42:07.442Z,8.35
2022-11-27T02:44:36.311Z,6.10
2022-11-27T02:47:04.874Z,7.00
2022-11-27T02:49:32.714Z,5.32
2022-11-27T02:52:02.466Z,8.88
2022-11-27T02:54:31.092Z,11.15
2022-11-27T02:57:01.316Z,6.45
2022-11-27T02:59:29.907Z,6.00
2022-11-27T03:02:03.145Z,6.50
2022-11-27T03:04:34.513Z,7.03
2022-11-27T03:07:04.165Z,5.18
2022-11-27T03:09:36.209Z,6.03
2022-11-27T03:12:06.318Z,6.65
2022-11-27T03:14:34.604Z,7.97
2022-11-27T03:17:07.825Z,4.85
2022-11-27T03:19:38.257Z,4.78
2022-11-27T03:22:05.940Z,5.97
2022-11-27T03:24:34.969Z,5.60
2022-11-27T03:27:02.910Z,5.30
2022-11-27T03:29:32.633Z,5.97
2022-11-27T03:32:01.306Z,5.63
2022-11-27T03:34:29.107Z,5.80
2022-11-27T03:36:56.688Z,5.80
2022-11-27T03:39:25.882Z,6.45
2022-11-27T03:42:02.472Z,5.72
2022-11-27T03:44:29.970Z,5.45
2022-11-27T03:46:57.537Z,8.88
2022-11-27T03:49:44.030Z,8.18
2022-11-27T03:52:26.269Z,6.30
2022-11-27T03:55:02.801Z,4.28
2022-11-27T03:59:59.619Z,4.10
2022-11-27T04:02:32.367Z,4.95
2022-11-27T04:04:59.928Z,5.03
2022-11-27T04:07:27.615Z,5.55
2022-11-27T04:09:55.196Z,4.07
2022-11-27T04:12:22.707Z,4.13
2022-11-27T04:14:50.268Z,7.13
2022-11-27T04:17:17.806Z,5.15
2022-11-27T04:19:45.406Z,7.15
2022-11-27T04:22:12.949Z,4.38
2022-11-27T04:24:40.726Z,4.78
2022-11-27T04:27:08.443Z,5.15
2022-11-27T04:29:36.641Z,3.78
2022-11-27T04:32:04.670Z,7.03
2022-11-27T04:34:32.674Z,5.55
2022-11-27T04:37:00.500Z,7.47
2022-11-27T04:39:28.149Z,6.63
2022-11-27T04:41:55.827Z,6.05
2022-11-27T04:44:23.374Z,4.47
2022-11-27T04:46:50.963Z,3.40
2022-11-27T04:49:18.628Z,5.18
2022-11-27T04:51:46.202Z,4.57
2022-11-27T04:54:13.786Z,4.10
2022-11-27T04:56:41.314Z,4.60
2022-11-27T04:59:08.933Z,4.45
2022-11-27T05:01:36.992Z,4.95
2022-11-27T05:04:04.592Z,4.03
2022-11-27T05:06:32.198Z,5.10
2022-11-27T05:09:01.999Z,7.78
2022-11-27T05:11:30.819Z,3.55
2022-11-27T05:14:17.948Z,4.90
2022-11-27T05:16:46.238Z,4.18
2022-11-27T05:19:14.419Z,4.22
2022-11-27T05:21:42.184Z,4.00
2022-11-27T05:24:09.842Z,4.15
2022-11-27T05:26:37.704Z,3.58
2022-11-27T05:29:05.289Z,4.75
2022-11-27T05:31:33.076Z,3.03
2022-11-27T05:34:00.773Z,3.88
2022-11-27T05:36:28.718Z,5.50
2022-11-27T05:38:56.317Z,4.35
2022-11-27T05:41:24.253Z,3.20
2022-11-27T05:43:51.807Z,6.65
2022-11-27T05:46:20.744Z,4.20
2022-11-27T05:48:48.623Z,2.97
2022-11-27T05:51:16.884Z,4.53
2022-11-27T05:53:44.601Z,4.32
2022-11-27T05:56:13.580Z,4.30
2022-11-27T05:58:41.575Z,4.15
2022-11-27T06:01:09.860Z,4.13
2022-11-27T06:03:40.743Z,3.70
2022-11-27T06:06:08.968Z,4.90
2022-11-27T06:08:40.296Z,5.28
2022-11-27T06:11:08.869Z,4.07
2022-11-27T06:13:36.647Z,4.53
2022-11-27T06:16:14.267Z,2.97
2022-11-27T06:18:42.007Z,4.47
2022-11-27T06:21:10.637Z,4.40
2022-11-27T06:23:38.431Z,3.75
2022-11-27T06:26:13.197Z,2.40
2022-11-27T06:28:41.041Z,5.13
2022-11-27T06:31:14.487Z,6.03
2022-11-27T06:33:45.327Z,5.32
2022-11-27T06:36:12.885Z,4.15
2022-11-27T06:38:40.457Z,3.78
2022-11-27T06:41:09.714Z,4.20
2022-11-27T06:43:37.391Z,4.88
2022-11-27T06:46:05.761Z,6.68
2022-11-27T06:48:34.049Z,5.30
2022-11-27T06:51:02.105Z,4.05
2022-11-27T06:53:30.355Z,3.83
2022-11-27T06:55:58.197Z,4.05
2022-11-27T06:58:30.863Z,4.30
2022-11-27T07:00:59.976Z,4.88
2022-11-27T07:03:27.855Z,3.78
2022-11-27T07:05:55.408Z,4.57
2022-11-27T07:08:22.966Z,3.92
2022-11-27T07:10:50.591Z,3.78
2022-11-27T07:13:18.176Z,3.13
2022-11-27T07:15:45.743Z,4.05
2022-11-27T07:18:13.315Z,6.90
2022-11-27T07:20:40.842Z,4.30
2022-11-27T07:23:08.381Z,4.50
2022-11-27T07:25:38.226Z,5.22
2022-11-27T07:28:05.764Z,3.53
2022-11-27T07:30:33.355Z,4.18
2022-11-27T07:33:00.886Z,3.38
2022-11-27T07:35:28.393Z,6.50
2022-11-27T07:37:55.974Z,5.45
2022-11-27T07:40:23.935Z,4.95
2022-11-27T07:42:51.547Z,3.17
2022-11-27T07:45:20.898Z,4.07
2022-11-27T07:47:49.394Z,4.18
2022-11-27T07:50:17.103Z,4.18
2022-11-27T07:52:44.662Z,6.32
2022-11-27T07:55:12.238Z,4.38
2022-11-27T07:57:39.918Z,6.03
2022-11-27T08:00:07.732Z,5.15
2022-11-27T08:02:35.290Z,6.57
2022-11-27T08:05:04.829Z,10.38
2022-11-27T08:07:35.789Z,4.82
2022-11-27T08:10:03.373Z,8.77
2022-11-27T08:12:30.916Z,7.72
2022-11-27T08:14:58.456Z,7.25
2022-11-27T08:17:25.999Z,6.70
2022-11-27T08:19:53.585Z,6.97
2022-11-27T08:22:21.345Z,9.32
2022-11-27T08:24:49.196Z,8.43
2022-11-27T08:27:16.839Z,7.40
2022-11-27T08:29:44.792Z,7.03
2022-11-27T08:32:12.370Z,6.78
2022-11-27T08:34:40.242Z,8.10
2022-11-27T08:37:08.393Z,7.55
2022-11-27T08:39:36.065Z,6.70
2022-11-27T08:42:03.694Z,8.40
2022-11-27T08:44:31.212Z,6.13
2022-11-27T08:46:58.767Z,6.72
2022-11-27T08:49:26.333Z,7.32
2022-11-27T08:51:53.977Z,5.20
2022-11-27T08:54:21.515Z,5.63
2022-11-27T08:56:49.075Z,6.07
2022-11-27T08:59:16.717Z,7.82
2022-11-27T09:01:44.637Z,6.60
2022-11-27T09:04:12.189Z,9.18
2022-11-27T09:06:41.667Z,5.53
2022-11-27T09:09:09.766Z,10.85
2022-11-27T09:11:37.784Z,11.43
2022-11-27T09:14:05.921Z,13.60
2022-11-27T09:16:34.301Z,15.85
2022-11-27T09:19:02.236Z,12.63
2022-11-27T09:21:30.782Z,13.25
2022-11-27T09:23:59.754Z,12.05
2022-11-27T09:26:27.820Z,19.55
2022-11-27T09:28:55.831Z,12.23
2022-11-27T09:31:23.797Z,11.75
2022-11-27T09:33:51.411Z,15.45
2022-11-27T09:36:23.404Z,12.35
2022-11-27T09:38:51.143Z,9.43
2022-11-27T09:41:18.735Z,10.23
2022-11-27T09:43:53.134Z,10.82
2022-11-27T09:46:26.089Z,10.07
2022-11-27T09:48:54.414Z,9.80
2022-11-27T09:51:26.237Z,7.50
2022-11-27T09:54:02.946Z,9.73
2022-11-27T09:56:30.744Z,6.57
2022-11-27T09:58:59.455Z,7.28
2022-11-27T10:01:38.407Z,8.23
2022-11-27T10:04:10.460Z,6.55
2022-11-27T10:07:02.287Z,7.32
2022-11-27T10:09:38.923Z,7.60
2022-11-27T10:12:06.459Z,6.45
2022-11-27T10:14:40.531Z,5.00
2022-11-27T10:17:11.340Z,4.32
2022-11-27T10:19:50.258Z,4.93
2022-11-27T10:22:36.409Z,7.65
2022-11-27T10:25:12.235Z,7.82
2022-11-27T10:27:44.839Z,5.25
2022-11-27T10:30:20.316Z,3.92
2022-11-27T10:32:56.211Z,4.47
2022-11-27T10:35:25.490Z,2.60
2022-11-27T10:38:06.531Z,4.22
2022-11-27T10:40:34.662Z,6.22
2022-11-27T10:43:05.849Z,3.60
2022-11-27T10:45:52.661Z,4.72
2022-11-27T10:48:20.905Z,6.10
2022-11-27T10:50:48.542Z,5.22
2022-11-27T10:53:35.727Z,5.97
2022-11-27T10:56:12.432Z,4.43
2022-11-27T10:58:43.070Z,4.05
2022-11-27T11:01:12.527Z,3.70
2022-11-27T11:03:40.135Z,4.15
2022-11-27T11:06:20.979Z,4.47
2022-11-27T11:09:02.075Z,6.88
2022-11-27T11:11:29.724Z,3.47
2022-11-27T11:13:57.335Z,4.50
2022-11-27T11:16:34.914Z,5.60
2022-11-27T11:19:03.539Z,6.22
2022-11-27T11:21:35.762Z,4.30
2022-11-27T11:24:04.908Z,4.28
2022-11-27T11:26:38.537Z,6.80
2022-11-27T11:29:07.788Z,6.15
2022-11-27T11:31:40.253Z,8.48
2022-11-27T11:34:20.942Z,3.90
2022-11-27T11:37:14.927Z,4.57
2022-11-27T11:39:49.011Z,3.88
2022-11-27T11:42:24.460Z,6.70
2022-11-27T11:44:54.120Z,3.95
2022-11-27T11:47:24.903Z,5.22
2022-11-27T11:49:53.256Z,3.38
2022-11-27T11:52:23.822Z,3.35
2022-11-27T11:55:10.894Z,4.15
2022-11-27T11:57:38.390Z,5.15
2022-11-27T12:00:10.769Z,3.67
2022-11-27T12:02:54.382Z,2.90
2022-11-27T12:05:32.797Z,5.78
2022-11-27T12:08:00.415Z,4.97
2022-11-27T12:10:34.198Z,3.15
2022-11-27T12:13:12.205Z,5.15
2022-11-27T12:15:59.995Z,4.50
2022-11-27T12:18:38.155Z,4.47
2022-11-27T12:21:16.409Z,4.80
2022-11-27T12:23:43.950Z,5.28
2022-11-27T12:26:11.481Z,4.53
2022-11-27T12:28:45.205Z,4.70
2022-11-27T12:31:19.908Z,6.50
2022-11-27T12:33:54.980Z,4.28
2022-11-27T12:36:28.475Z,5.68
2022-11-27T12:39:02.519Z,5.40
2022-11-27T12:41:36.238Z,6.15
2022-11-27T12:44:04.049Z,6.25
2022-11-27T12:46:52.336Z,5.82
2022-11-27T12:49:26.569Z,7.03
2022-11-27T12:51:57.257Z,5.95
2022-11-27T12:54:33.309Z,4.80
2022-11-27T12:57:09.129Z,6.88
2022-11-27T12:59:58.432Z,5.30
2022-11-27T13:02:49.272Z,5.30
2022-11-27T13:05:20.511Z,4.93
2022-11-27T13:08:01.077Z,4.93
2022-11-27T13:10:36.852Z,5.57
2022-11-27T13:13:16.427Z,5.10
2022-11-27T13:15:53.032Z,5.90
2022-11-27T13:18:35.821Z,6.10
2022-11-27T13:21:05.996Z,5.05
2022-11-27T13:23:34.059Z,6.35
2022-11-27T13:26:27.863Z,5.97
2022-11-27T13:28:58.203Z,5.80
2022-11-27T13:31:31.213Z,5.78
2022-11-27T13:34:00.626Z,10.05
2022-11-27T13:36:34.719Z,6.07
2022-11-27T13:39:03.988Z,4.50
2022-11-27T13:41:38.690Z,8.35
2022-11-27T13:44:22.420Z,8.77
2022-11-27T13:46:54.752Z,5.65
2022-11-27T13:49:32.982Z,6.65
2022-11-27T13:52:06.457Z,7.70
2022-11-27T13:54:34.141Z,7.22
2022-11-27T13:57:17.993Z,4.60
2022-11-27T14:00:04.353Z,7.22
2022-11-27T14:02:43.666Z,6.25
2022-11-27T14:05:12.407Z,5.25
2022-11-27T14:07:45.322Z,5.65
2022-11-27T14:10:15.498Z,5.57
2022-11-27T14:12:43.489Z,5.22
2022-11-27T14:15:21.573Z,5.88
2022-11-27T14:17:50.609Z,4.65
2022-11-27T14:20:18.137Z,4.35
2022-11-27T14:23:10.022Z,6.13
2022-11-27T14:25:36.296Z,10.57
2022-11-27T14:28:36.320Z,7.93
2022-11-27T14:31:04.824Z,6.90
2022-11-27T14:33:59.630Z,6.50
2022-11-27T14:36:30.197Z,5.53
2022-11-27T14:38:59.028Z,5.80
2022-11-27T14:41:27.645Z,6.65
2022-11-27T14:44:05.756Z,5.07
2022-11-27T14:46:34.657Z,5.57
2022-11-27T14:49:02.296Z,7.35
2022-11-27T14:51:32.627Z,6.63
2022-11-27T14:54:05.012Z,7.70
2022-11-27T14:56:34.294Z,5.63
2022-11-27T14:59:03.018Z,8.30
2022-11-27T15:01:55.805Z,7.25
2022-11-27T15:04:37.267Z,4.55
2022-11-27T15:07:28.694Z,8.40
2022-11-27T15:09:59.773Z,6.70
2022-11-27T15:12:29.002Z,5.68
2022-11-27T15:14:56.611Z,6.57
2022-11-27T15:17:29.195Z,6.63
2022-11-27T15:19:57.503Z,6.95
2022-11-27T15:22:25.344Z,7.75
2022-11-27T15:25:06.502Z,6.72
2022-11-27T15:27:44.708Z,5.47
2022-11-27T15:30:15.354Z,5.93
2022-11-27T15:32:51.155Z,6.03
2022-11-27T15:35:23.818Z,8.27
2022-11-27T15:37:51.916Z,10.95
2022-11-27T15:40:29.524Z,14.35
2022-11-27T15:42:57.127Z,21.75
2022-11-27T15:45:27.530Z,18.00
2022-11-27T15:48:00.205Z,14.00
2022-11-27T15:50:28.898Z,11.02
2022-11-27T15:52:56.901Z,7.00
2022-11-27T15:55:25.073Z,8.07
2022-11-27T15:57:52.903Z,9.40
2022-11-27T16:00:23.312Z,9.50
2022-11-27T16:02:52.461Z,11.07
2022-11-27T16:05:21.256Z,13.68
2022-11-27T16:07:53.603Z,9.38
2022-11-27T16:10:23.005Z,8.50
2022-11-27T16:12:54.739Z,9.80
2022-11-27T16:15:23.332Z,11.90
2022-11-27T16:17:53.655Z,8.65
2022-11-27T16:20:21.273Z,8.95
2022-11-27T16:22:49.402Z,10.65
2022-11-27T16:25:17.362Z,8.63
2022-11-27T16:27:44.958Z,8.88
2022-11-27T16:30:13.118Z,8.05
2022-11-27T16:32:41.003Z,10.63
2022-11-27T16:35:09.080Z,11.48
2022-11-27T16:37:36.719Z,10.40
2022-11-27T16:40:04.429Z,10.15
2022-11-27T16:42:32.396Z,11.23
2022-11-27T16:45:00.049Z,12.77
2022-11-27T16:47:33.285Z,13.20
2022-11-27T16:50:02.430Z,11.77
2022-11-27T16:52:30.714Z,11.02
2022-11-27T16:54:58.546Z,14.18
2022-11-27T16:57:26.166Z,10.27
2022-11-27T16:59:53.871Z,11.25
2022-11-27T17:02:33.785Z,12.32
2022-11-27T17:05:10.275Z,12.25
2022-11-27T17:07:38.071Z,16.30
2022-11-27T17:10:05.935Z,12.00
2022-11-27T17:12:33.855Z,13.27
2022-11-27T17:15:03.019Z,12.32
2022-11-27T17:17:34.235Z,11.38
2022-11-27T17:20:05.677Z,10.57
2022-11-27T17:22:35.763Z,10.57
2022-11-27T17:25:05.208Z,8.63
2022-11-27T17:27:34.163Z,12.10
2022-11-27T17:30:03.040Z,9.20
2022-11-27T17:32:30.585Z,11.73
2022-11-27T17:34:58.159Z,12.82
2022-11-27T17:37:25.665Z,15.73
2022-11-27T17:39:53.272Z,16.80
2022-11-27T17:42:22.851Z,14.85
2022-11-27T17:44:51.478Z,17.92
2022-11-27T17:47:19.037Z,22.42
2022-11-27T17:49:46.629Z,18.17
2022-11-27T17:52:14.379Z,22.33
2022-11-27T17:54:43.313Z,20.73
2022-11-27T17:57:10.977Z,28.83
2022-11-27T17:59:39.995Z,25.98
2022-11-27T18:02:08.173Z,25.63
2022-11-27T18:04:36.152Z,24.75
2022-11-27T18:07:03.882Z,22.35
2022-11-27T18:09:31.622Z,20.65
2022-11-27T18:11:59.331Z,20.08
2022-11-27T18:14:29.459Z,28.85
2022-11-27T18:17:04.169Z,21.17
2022-11-27T18:19:32.467Z,18.95
2022-11-27T18:22:00.531Z,20.77
2022-11-27T18:24:28.343Z,24.23
2022-11-27T18:27:12.010Z,24.63
2022-11-27T18:29:42.275Z,23.70
2022-11-27T18:32:10.803Z,19.98
2022-11-27T18:34:38.521Z,24.70
2022-11-27T18:37:06.676Z,29.75
2022-11-27T18:39:35.368Z,23.42
2022-11-27T18:42:04.779Z,22.15
2022-11-27T18:44:33.312Z,22.95
2022-11-27T18:47:01.045Z,26.38
2022-11-27T18:49:29.163Z,34.42
2022-11-27T18:51:56.788Z,40.10
2022-11-27T18:54:24.616Z,40.30
2022-11-27T18:56:52.243Z,34.85
2022-11-27T18:59:19.856Z,31.40
2022-11-27T19:01:48.743Z,29.48
2022-11-27T19:04:16.428Z,27.92
2022-11-27T19:06:44.508Z,29.60
2022-11-27T19:09:12.965Z,28.52
2022-11-27T19:11:41.225Z,29.17
2022-11-27T19:14:09.055Z,24.40
2022-11-27T19:16:42.069Z,25.98
2022-11-27T19:19:49.456Z,26.38
2022-11-27T19:21:58.166Z,27.48
2022-11-27T19:24:27.412Z,31.15
2022-11-27T19:26:55.361Z,27.13
2022-11-27T19:29:24.421Z,28.75
2022-11-27T19:31:52.229Z,27.60
2022-11-27T19:34:21.356Z,26.70
2022-11-27T19:36:49.435Z,29.52
2022-11-27T19:39:17.257Z,27.60
2022-11-27T19:41:45.072Z,26.98
2022-11-27T19:44:17.114Z,28.33
2022-11-27T19:46:46.412Z,22.35
2022-11-27T19:49:18.678Z,22.52
2022-11-27T19:51:46.806Z,22.88
2022-11-27T19:54:15.553Z,23.42
2022-11-27T19:56:43.651Z,24.90
2022-11-27T19:59:12.767Z,22.27
2022-11-27T20:01:42.263Z,23.75
2022-11-27T20:04:15.281Z,23.08
2022-11-27T20:06:44.927Z,25.20
2022-11-27T20:09:14.208Z,24.45
2022-11-27T20:11:41.835Z,25.33
2022-11-27T20:14:09.674Z,23.30
2022-11-27T20:16:37.572Z,26.48
2022-11-27T20:19:06.490Z,22.70
2022-11-27T20:21:36.808Z,26.23
2022-11-27T20:24:04.693Z,27.52
2022-11-27T20:26:37.177Z,28.30
2022-11-27T20:29:06.661Z,27.15
2022-11-27T20:31:36.297Z,25.00
2022-11-27T20:34:06.494Z,24.92
2022-11-27T20:36:35.206Z,27.77
2022-11-27T20:39:03.590Z,25.05
2022-11-27T20:41:31.546Z,24.92
2022-11-27T20:44:01.052Z,23.17
2022-11-27T20:46:30.071Z,25.42
2022-11-27T20:48:58.880Z,23.10
2022-11-27T20:51:30.773Z,22.52
2022-11-27T20:53:59.252Z,25.00
2022-11-27T20:56:27.532Z,25.40
2022-11-27T20:58:57.298Z,25.83
2022-11-27T21:01:26.976Z,23.45
2022-11-27T21:03:55.342Z,30.98
2022-11-27T21:06:26.792Z,26.67
2022-11-27T21:08:54.810Z,27.08
2022-11-27T21:11:26.989Z,26.05
2022-11-27T21:13:58.956Z,25.00
2022-11-27T21:16:27.919Z,28.65
2022-11-27T21:18:59.155Z,27.65
2022-11-27T21:21:27.087Z,34.90
2022-11-27T21:23:55.040Z,32.80
2022-11-27T21:26:23.764Z,32.03
2022-11-27T21:28:51.645Z,35.80
2022-11-27T21:31:20.662Z,32.20
2022-11-27T21:33:48.245Z,31.13
2022-11-27T21:36:16.266Z,27.13
2022-11-27T21:38:44.312Z,30.17
2022-11-27T21:41:13.745Z,30.23
2022-11-27T21:43:42.543Z,25.40
2022-11-27T21:46:12.769Z,27.50
2022-11-27T21:48:41.196Z,30.52
2022-11-27T21:51:12.768Z,25.83
2022-11-27T21:53:40.710Z,27.63
2022-11-27T21:56:08.922Z,25.95
2022-11-27T21:58:37.233Z,28.15
2022-11-27T22:01:06.270Z,25.95
2022-11-27T22:03:35.682Z,23.83
2022-11-27T22:06:08.802Z,26.38
2022-11-27T22:08:36.845Z,33.83
2022-11-27T22:11:08.548Z,30.70
2022-11-27T22:13:36.360Z,27.00
2022-11-27T22:16:09.163Z,29.73
2022-11-27T22:18:37.043Z,31.73
2022-11-27T22:21:05.492Z,28.90
2022-11-27T22:23:33.253Z,28.42
2022-11-27T22:26:02.442Z,33.78
2022-11-27T22:28:34.688Z,25.90
2022-11-27T22:31:14.660Z,23.48
2022-11-27T22:33:43.709Z,25.08
2022-11-27T22:36:16.079Z,27.65
2022-11-27T22:38:44.544Z,26.02
2022-11-27T22:41:12.617Z,22.67
2022-11-27T22:43:40.549Z,24.50
2022-11-27T22:46:12.637Z,22.48
2022-11-27T22:48:40.822Z,21.60
2022-11-27T22:51:09.282Z,22.10
2022-11-27T22:53:37.780Z,24.08
2022-11-27T22:56:15.297Z,22.77
2022-11-27T22:58:43.611Z,26.85
2022-11-27T23:01:23.323Z,24.80
2022-11-27T23:03:52.097Z,27.77
2022-11-27T23:06:21.275Z,24.23
2022-11-27T23:09:30.922Z,23.17
2022-11-27T23:11:59.160Z,21.83
2022-11-27T23:14:26.988Z,23.83
2022-11-27T23:16:54.684Z,24.52
2022-11-27T23:19:22.389Z,24.02
2022-11-27T23:21:49.987Z,27.85
2022-11-27T23:24:17.606Z,23.42
2022-11-27T23:26:45.832Z,22.77
2022-11-27T23:29:14.189Z,24.27
2022-11-27T23:31:41.887Z,21.40
2022-11-27T23:34:11.625Z,23.90
2022-11-27T23:36:39.573Z,23.42
2022-11-27T23:39:08.387Z,23.92
2022-11-27T23:41:36.240Z,23.92
2022-11-27T23:44:03.906Z,22.20
2022-11-27T23:46:31.579Z,22.25
2022-11-27T23:49:00.260Z,22.48
2022-11-27T23:51:29.454Z,21.73
2022-11-27T23:53:57.098Z,20.95
2022-11-27T23:56:26.404Z,23.75
2022-11-27T23:58:54.798Z,22.45
